createdAt,value
2018-04-11T08:14:37.201Z,15.20
2018-04-11T08:17:07.640Z,15.20
2018-04-11T08:19:37.821Z,14.90
2018-04-11T08:22:08.293Z,14.50
2018-04-11T08:24:38.708Z,14.70
2018-04-11T08:27:09.499Z,14.80
2018-04-11T08:29:45.286Z,15.10
2018-04-11T08:32:16.192Z,15.10
2018-04-11T08:34:46.531Z,14.90
2018-04-11T08:37:16.747Z,15.20
2018-04-11T08:39:48.907Z,15.80
2018-04-11T08:42:20.586Z,16.00
2018-04-11T08:44:56.717Z,16.00
2018-04-11T08:47:28.564Z,16.20
2018-04-11T08:49:59.667Z,16.20
2018-04-11T08:52:29.993Z,16.20
2018-04-11T08:55:00.556Z,16.20
2018-04-11T08:57:30.985Z,16.10
2018-04-11T09:00:02.504Z,16.10
2018-04-11T09:02:33.147Z,16.10
2018-04-11T09:05:03.518Z,16.20
2018-04-11T09:07:34.941Z,16.20
2018-04-11T09:10:08.140Z,16.20
2018-04-11T09:12:38.149Z,16.30
2018-04-11T09:15:08.215Z,16.40
2018-04-11T09:17:39.300Z,15.90
2018-04-11T09:20:09.820Z,16.10
2018-04-11T09:22:40.739Z,15.90
2018-04-11T09:25:11.981Z,16.10
2018-04-11T09:27:42.936Z,16.20
2018-04-11T09:30:13.092Z,16.20
2018-04-11T09:32:43.333Z,16.10
2018-04-11T09:35:14.397Z,16.00
2018-04-11T09:37:44.835Z,16.00
2018-04-11T09:40:15.503Z,16.10
2018-04-11T09:42:46.493Z,16.10
2018-04-11T09:45:16.596Z,16.10
2018-04-11T09:47:46.825Z,16.40
2018-04-11T09:50:16.908Z,16.30
2018-04-11T09:52:49.852Z,16.30
2018-04-11T09:55:21.609Z,16.40
2018-04-11T09:57:51.756Z,16.20
2018-04-11T10:00:21.903Z,16.30
2018-04-11T10:02:56.996Z,16.40
2018-04-11T10:05:27.096Z,16.40
2018-04-11T10:07:57.650Z,16.00
2018-04-11T10:10:27.927Z,15.70
2018-04-11T10:12:58.017Z,16.60
2018-04-11T10:15:28.747Z,15.80
2018-04-11T10:17:58.941Z,16.10
2018-04-11T10:20:29.776Z,15.40
2018-04-11T10:23:00.027Z,16.30
2018-04-11T10:25:30.277Z,16.40
2018-04-11T10:28:01.169Z,16.60
2018-04-11T10:30:31.233Z,16.60
2018-04-11T10:33:02.167Z,16.60
2018-04-11T10:35:34.390Z,16.50
2018-04-11T10:38:05.027Z,16.50
2018-04-11T10:40:35.292Z,18.30
2018-04-11T10:43:06.129Z,16.20
2018-04-11T10:45:37.690Z,16.00
2018-04-11T10:48:08.530Z,15.90
2018-04-11T10:50:39.775Z,15.70
2018-04-11T10:53:10.495Z,16.00
2018-04-11T10:55:41.250Z,16.30
2018-04-11T10:58:11.436Z,16.30
2018-04-11T11:00:45.138Z,16.20
2018-04-11T11:03:15.299Z,15.70
2018-04-11T11:05:51.953Z,15.60
2018-04-11T11:08:22.635Z,15.90
2018-04-11T11:10:53.396Z,15.90
2018-04-11T11:13:23.719Z,16.40
2018-04-11T11:15:54.386Z,16.90
2018-04-11T11:18:27.566Z,16.90
2018-04-11T11:21:00.011Z,17.10
2018-04-11T11:23:30.558Z,17.00
2018-04-11T11:26:01.170Z,16.90
2018-04-11T11:28:31.527Z,17.30
2018-04-11T11:31:02.292Z,17.20
2018-04-11T11:33:33.967Z,16.80
2018-04-11T11:36:05.622Z,16.90
2018-04-11T11:38:35.928Z,16.90
2018-04-11T11:41:05.952Z,16.70
2018-04-11T11:43:36.097Z,16.60
2018-04-11T11:46:06.320Z,16.70
2018-04-11T11:48:36.384Z,17.40
2018-04-11T11:51:07.642Z,16.60
2018-04-11T11:53:37.539Z,16.80
2018-04-11T11:56:08.716Z,16.20
2018-04-11T11:58:38.966Z,16.20
2018-04-11T12:01:20.090Z,15.80
2018-04-11T12:06:37.402Z,15.70
2018-04-11T12:09:07.843Z,15.60
2018-04-11T12:11:41.267Z,16.00
2018-04-11T12:14:11.330Z,16.00
2018-04-11T12:16:41.471Z,15.90
2018-04-11T12:19:11.518Z,15.70
2018-04-11T12:21:42.115Z,16.10
2018-04-11T12:24:12.362Z,15.70
2018-04-11T12:26:43.692Z,15.90
2018-04-11T12:29:14.514Z,16.40
2018-04-11T12:31:44.666Z,16.40
2018-04-11T12:34:15.599Z,16.10
2018-04-11T12:36:52.146Z,15.80
2018-04-11T12:39:23.882Z,15.80
2018-04-11T12:41:54.688Z,16.00
2018-04-11T12:44:25.014Z,16.50
2018-04-11T12:46:56.571Z,17.00
2018-04-11T12:49:26.651Z,17.10
2018-04-11T12:51:58.362Z,17.50
2018-04-11T12:54:29.003Z,17.40
2018-04-11T12:57:00.015Z,17.70
2018-04-11T12:59:30.023Z,17.30
2018-04-11T13:02:01.419Z,17.50
2018-04-11T13:04:32.574Z,18.00
2018-04-11T13:07:02.745Z,17.50
2018-04-11T13:09:33.016Z,17.00
2018-04-11T13:12:05.042Z,17.00
2018-04-11T13:14:35.330Z,17.00
2018-04-11T13:17:07.508Z,17.10
2018-04-11T13:19:38.032Z,17.10
2018-04-11T13:22:09.199Z,17.00
2018-04-11T13:24:39.667Z,17.00
2018-04-11T13:27:10.477Z,17.30
2018-04-11T13:29:40.751Z,16.80
2018-04-11T13:32:12.666Z,16.90
2018-04-11T13:34:44.935Z,17.40
2018-04-11T13:37:14.898Z,17.30
2018-04-11T13:39:45.847Z,17.30
2018-04-11T13:42:15.999Z,17.30
2018-04-11T13:44:46.845Z,17.40
2018-04-11T13:47:17.574Z,17.60
2018-04-11T13:49:47.661Z,17.60
2018-04-11T13:52:18.255Z,17.30
2018-04-11T13:54:48.303Z,17.50
2018-04-11T13:57:19.411Z,17.60
2018-04-11T13:59:50.625Z,17.60
2018-04-11T14:02:22.889Z,17.60
2018-04-11T14:04:54.222Z,17.60
2018-04-11T14:07:24.235Z,17.50
2018-04-11T14:09:55.193Z,16.60
2018-04-11T14:12:25.263Z,16.60
2018-04-11T14:14:55.324Z,16.40
2018-04-11T14:17:25.794Z,16.50
2018-04-11T14:19:55.899Z,16.40
2018-04-11T14:22:25.951Z,16.10
2018-04-11T14:24:56.395Z,16.10
2018-04-11T14:27:27.278Z,15.80
2018-04-11T14:29:57.452Z,15.80
2018-04-11T14:32:28.507Z,15.90
2018-04-11T14:34:58.508Z,15.90
2018-04-11T14:37:29.260Z,15.40
2018-04-11T14:39:59.390Z,15.30
2018-04-11T14:42:30.334Z,15.90
2018-04-11T14:45:00.488Z,15.90
2018-04-11T14:47:32.111Z,15.60
2018-04-11T14:50:02.266Z,15.60
2018-04-11T14:52:33.005Z,15.70
2018-04-11T14:55:03.658Z,15.60
2018-04-11T14:57:34.656Z,15.50
2018-04-11T15:00:05.813Z,15.50
2018-04-11T15:02:36.496Z,15.40
2018-04-11T15:05:09.919Z,16.50
2018-04-11T15:07:39.978Z,15.50
2018-04-11T15:10:10.127Z,15.60
2018-04-11T15:12:41.142Z,15.60
2018-04-11T15:15:12.935Z,16.10
2018-04-11T15:17:43.312Z,15.00
2018-04-11T15:20:13.509Z,15.70
2018-04-11T15:22:43.594Z,16.10
2018-04-11T15:25:13.723Z,15.20
2018-04-11T15:27:43.873Z,15.20
2018-04-11T15:30:17.309Z,15.60
2018-04-11T15:32:48.261Z,15.70
2018-04-11T15:35:18.328Z,17.20
2018-04-11T15:37:48.435Z,14.40
2018-04-11T15:40:18.405Z,15.60
2018-04-11T15:42:49.689Z,16.00
2018-04-11T15:45:19.909Z,16.00
2018-04-11T15:47:52.690Z,15.90
2018-04-11T15:50:22.720Z,15.40
2018-04-11T15:52:52.809Z,15.10
2018-04-11T15:55:23.774Z,14.60
2018-04-11T15:57:53.998Z,14.60
2018-04-11T16:00:24.264Z,14.70
2018-04-11T16:02:54.741Z,14.70
2018-04-11T16:05:25.094Z,14.70
2018-04-11T16:07:55.109Z,14.80
2018-04-11T16:10:25.732Z,14.80
2018-04-11T16:13:03.914Z,14.70
2018-04-11T16:15:34.095Z,14.60
2018-04-11T16:18:04.630Z,14.50
2018-04-11T16:20:34.672Z,14.60
2018-04-11T16:23:05.783Z,14.00
2018-04-11T16:25:36.593Z,14.50
2018-04-11T16:28:08.209Z,14.50
2018-04-11T16:30:41.471Z,14.60
2018-04-11T16:33:18.674Z,13.70
2018-04-11T16:35:55.143Z,15.20
2018-04-11T16:38:30.199Z,15.20
2018-04-11T16:41:00.534Z,15.00
2018-04-11T16:43:31.471Z,15.00
2018-04-11T16:46:01.650Z,14.70
2018-04-11T16:48:33.500Z,14.80
2018-04-11T16:51:05.524Z,14.80
2018-04-11T17:37:19.105Z,14.50
2018-04-11T17:39:49.980Z,14.30
2018-04-11T17:42:20.443Z,14.30
2018-04-11T17:44:50.577Z,14.10
2018-04-11T17:47:21.955Z,14.30
2018-04-11T17:49:53.203Z,14.50
2018-04-11T17:52:24.214Z,14.50
2018-04-11T17:54:56.425Z,14.60
2018-04-11T17:57:26.868Z,14.60
2018-04-11T17:59:56.745Z,14.50
2018-04-11T18:02:27.745Z,14.50
2018-04-11T18:04:58.039Z,14.50
2018-04-11T18:07:27.977Z,14.30
2018-04-11T18:09:58.019Z,14.10
2018-04-11T18:12:28.281Z,13.10
2018-04-11T18:14:59.691Z,14.20
2018-04-11T18:17:29.718Z,14.20
2018-04-11T18:19:59.672Z,13.20
2018-04-11T18:22:29.641Z,14.10
2018-04-11T18:24:59.599Z,14.00
2018-04-11T18:27:30.138Z,13.80
2018-04-11T18:29:59.933Z,13.80
2018-04-11T18:32:30.857Z,13.60
2018-04-11T18:35:00.590Z,13.60
2018-04-11T18:37:31.062Z,13.80
2018-04-11T18:40:01.160Z,13.80
2018-04-11T18:42:30.903Z,13.90
2018-04-11T18:45:00.645Z,14.00
2018-04-11T18:47:30.491Z,14.20
2018-04-11T18:50:01.181Z,14.40
2018-04-11T18:52:30.948Z,14.40
2018-04-11T18:55:01.015Z,15.10
2018-04-11T18:57:31.522Z,14.10
2018-04-11T19:00:01.285Z,14.10
2018-04-11T19:02:31.308Z,15.10
2018-04-11T19:05:02.353Z,14.20
2018-04-11T19:07:32.178Z,14.10
2018-04-11T19:10:02.308Z,14.10
2018-04-11T19:12:32.126Z,14.00
2018-04-11T19:15:01.929Z,13.90
2018-04-11T19:17:31.987Z,14.00
2018-04-11T19:20:01.675Z,14.00
2018-04-11T19:22:31.363Z,14.00
2018-04-11T19:25:01.564Z,13.90
2018-04-11T19:27:31.304Z,13.50
2018-04-11T19:30:01.200Z,13.30
2018-04-11T19:32:31.175Z,13.50
2018-04-11T19:35:01.572Z,13.50
2018-04-11T19:37:31.292Z,13.50
2018-04-11T19:40:01.523Z,13.30
2018-04-11T19:42:31.279Z,13.30
2018-04-11T19:45:01.019Z,13.40
2018-04-11T19:47:31.201Z,13.50
2018-04-11T19:50:01.043Z,13.60
2018-04-11T19:52:30.894Z,13.60
2018-04-11T19:55:00.574Z,13.60
2018-04-11T19:57:30.327Z,13.40
2018-04-11T20:00:01.115Z,13.40
2018-04-11T20:02:30.822Z,13.40
2018-04-11T20:05:00.529Z,13.30
2018-04-11T20:07:30.535Z,13.20
2018-04-11T20:10:00.318Z,13.30
2018-04-11T20:12:30.779Z,13.20
2018-04-11T20:15:01.662Z,13.20
2018-04-11T20:17:34.094Z,13.00
2018-04-11T20:20:04.361Z,12.90
2018-04-11T20:22:34.088Z,12.90
2018-04-11T20:25:04.727Z,12.90
2018-04-11T20:27:35.338Z,13.00
2018-04-11T20:30:05.968Z,12.90
2018-04-11T20:32:36.675Z,12.90
2018-04-11T20:35:08.882Z,12.90
2018-04-11T20:37:39.294Z,12.90
2018-04-11T20:40:09.530Z,12.90
2018-04-11T20:42:41.380Z,12.70
2018-04-11T20:45:12.169Z,12.70
2018-04-11T20:47:42.573Z,12.60
2018-04-11T20:50:12.194Z,12.50
2018-04-11T20:52:42.013Z,12.60
2018-04-11T20:55:11.993Z,12.70
2018-04-11T20:57:42.333Z,12.50
2018-04-11T21:00:12.119Z,12.50
2018-04-11T21:02:42.496Z,12.20
2018-04-11T21:05:12.118Z,12.20
2018-04-11T21:07:41.764Z,12.20
2018-04-11T21:10:12.580Z,11.70
2018-04-11T21:12:42.439Z,11.60
2018-04-11T21:15:12.303Z,11.50
2018-04-11T21:17:42.254Z,11.70
2018-04-11T21:20:12.347Z,11.80
2018-04-11T21:22:41.969Z,11.90
2018-04-11T21:25:12.754Z,12.40
2018-04-11T21:27:42.334Z,11.60
2018-04-11T21:30:12.532Z,12.00
2018-04-11T21:32:42.970Z,12.10
2018-04-11T21:35:12.655Z,12.10
2018-04-11T21:37:42.441Z,12.10
2018-04-11T21:40:12.453Z,12.00
2018-04-11T21:42:42.163Z,11.90
2018-04-11T21:45:11.831Z,12.00
2018-04-11T21:47:41.553Z,11.90
2018-04-11T21:50:11.182Z,11.80
2018-04-11T21:52:40.747Z,11.80
2018-04-11T21:55:11.153Z,11.80
2018-04-11T21:57:41.493Z,11.80
2018-04-11T22:00:12.266Z,11.70
2018-04-11T22:02:41.884Z,11.70
2018-04-11T22:05:11.497Z,11.60
2018-04-11T22:07:41.085Z,11.60
2018-04-11T22:10:10.741Z,11.60
2018-04-11T22:12:40.340Z,12.40
2018-04-11T22:15:11.201Z,11.50
2018-04-11T22:17:41.633Z,11.60
2018-04-11T22:20:12.127Z,11.60
2018-04-11T22:22:41.870Z,11.60
2018-04-11T22:25:12.291Z,11.60
2018-04-11T22:27:42.997Z,11.60
2018-04-11T22:30:13.038Z,11.50
2018-04-11T22:32:42.626Z,11.50
2018-04-11T22:35:12.198Z,11.50
2018-04-11T22:37:41.852Z,11.40
2018-04-11T22:40:11.817Z,11.50
2018-04-11T22:42:41.529Z,11.40
2018-04-11T22:45:11.433Z,11.40
2018-04-11T22:47:41.191Z,11.40
2018-04-11T22:50:11.056Z,11.30
2018-04-11T22:52:40.812Z,11.30
2018-04-11T22:55:10.497Z,12.70
2018-04-11T22:57:40.263Z,11.30
2018-04-11T23:00:10.978Z,10.80
2018-04-11T23:02:40.610Z,10.80
2018-04-11T23:05:11.466Z,10.90
2018-04-11T23:07:41.174Z,11.00
2018-04-11T23:10:10.929Z,11.40
2018-04-11T23:12:40.670Z,11.10
2018-04-11T23:15:11.185Z,11.20
2018-04-11T23:17:41.256Z,11.10
2018-04-11T23:20:11.328Z,11.30
2018-04-11T23:22:40.873Z,11.10
2018-04-11T23:25:10.556Z,11.10
2018-04-11T23:27:40.941Z,11.10
2018-04-11T23:30:10.701Z,11.10
2018-04-11T23:32:41.197Z,11.10
2018-04-11T23:35:11.343Z,11.10
2018-04-11T23:37:41.113Z,11.10
2018-04-11T23:40:11.564Z,10.80
2018-04-11T23:42:42.039Z,10.90
2018-04-11T23:45:11.720Z,10.90
2018-04-11T23:47:43.022Z,10.90
2018-04-11T23:50:13.020Z,10.90
2018-04-11T23:52:42.605Z,11.00
2018-04-11T23:55:13.112Z,10.90
2018-04-11T23:57:42.743Z,10.90
